sensor_id;sensor_type;location;lat;lon;timestamp;pressure;altitude;pressure_sealevel;temperature;humidity
59154;BME280;44935;48.944;9.418;2024-03-02T00:00:38;97548.46;;;7.69;47.88
59154;BME280;44935;48.944;9.418;2024-03-02T00:03:07;97553.30;;;7.79;47.59
59154;BME280;44935;48.944;9.418;2024-03-02T00:05:34;97551.91;;;7.67;47.68
59154;BME280;44935;48.944;9.418;2024-03-02T00:08:00;97552.04;;;7.99;47.27
59154;BME280;44935;48.944;9.418;2024-03-02T00:10:35;97549.07;;;8.07;47.29
59154;BME280;44935;48.944;9.418;2024-03-02T00:13:03;97546.87;;;8.37;46.48
59154;BME280;44935;48.944;9.418;2024-03-02T00:15:47;97549.60;;;8.85;45.77
59154;BME280;44935;48.944;9.418;2024-03-02T00:18:18;97552.77;;;9.09;45.21
59154;BME280;44935;48.944;9.418;2024-03-02T00:20:45;97551.40;;;8.49;46.23
59154;BME280;44935;48.944;9.418;2024-03-02T00:23:15;97552.06;;;8.53;45.95
59154;BME280;44935;48.944;9.418;2024-03-02T00:25:44;97550.02;;;8.56;45.84
59154;BME280;44935;48.944;9.418;2024-03-02T00:28:16;97551.33;;;8.70;45.72
59154;BME280;44935;48.944;9.418;2024-03-02T00:30:52;97550.36;;;8.36;46.17
59154;BME280;44935;48.944;9.418;2024-03-02T00:33:22;97556.39;;;8.26;46.00
59154;BME280;44935;48.944;9.418;2024-03-02T00:35:50;97563.58;;;8.28;46.57
59154;BME280;44935;48.944;9.418;2024-03-02T00:38:17;97562.24;;;8.32;46.46
59154;BME280;44935;48.944;9.418;2024-03-02T00:40:45;97565.26;;;8.62;46.04
59154;BME280;44935;48.944;9.418;2024-03-02T00:43:45;97568.39;;;8.60;45.50
59154;BME280;44935;48.944;9.418;2024-03-02T00:46:16;97566.25;;;8.04;46.25
59154;BME280;44935;48.944;9.418;2024-03-02T00:48:54;97569.60;;;8.46;45.48
59154;BME280;44935;48.944;9.418;2024-03-02T00:51:22;97567.18;;;8.04;45.99
59154;BME280;44935;48.944;9.418;2024-03-02T00:53:49;97560.47;;;5.70;50.16
59154;BME280;44935;48.944;9.418;2024-03-02T00:56:17;97557.60;;;7.97;46.63
59154;BME280;44935;48.944;9.418;2024-03-02T00:58:44;97555.73;;;8.63;45.81
59154;BME280;44935;48.944;9.418;2024-03-02T01:01:12;97562.84;;;8.10;46.10
59154;BME280;44935;48.944;9.418;2024-03-02T01:03:39;97564.27;;;8.41;45.93
59154;BME280;44935;48.944;9.418;2024-03-02T01:06:06;97564.15;;;8.64;45.65
59154;BME280;44935;48.944;9.418;2024-03-02T01:08:34;97562.16;;;8.23;45.86
59154;BME280;44935;48.944;9.418;2024-03-02T01:11:01;97555.23;;;7.03;47.49
59154;BME280;44935;48.944;9.418;2024-03-02T01:13:29;97556.64;;;8.17;45.73
59154;BME280;44935;48.944;9.418;2024-03-02T01:15:55;97562.74;;;8.32;45.61
59154;BME280;44935;48.944;9.418;2024-03-02T01:18:22;97562.61;;;8.35;46.16
59154;BME280;44935;48.944;9.418;2024-03-02T01:20:50;97555.95;;;7.52;46.90
59154;BME280;44935;48.944;9.418;2024-03-02T01:23:17;97555.03;;;8.09;46.05
59154;BME280;44935;48.944;9.418;2024-03-02T01:25:44;97558.13;;;8.36;45.74
59154;BME280;44935;48.944;9.418;2024-03-02T01:28:11;97555.28;;;8.47;45.42
59154;BME280;44935;48.944;9.418;2024-03-02T01:30:39;97558.70;;;9.02;44.98
59154;BME280;44935;48.944;9.418;2024-03-02T01:33:06;97560.71;;;8.70;44.64
59154;BME280;44935;48.944;9.418;2024-03-02T01:35:33;97557.98;;;8.64;44.89
59154;BME280;44935;48.944;9.418;2024-03-02T01:38:01;97556.56;;;8.53;44.81
59154;BME280;44935;48.944;9.418;2024-03-02T01:40:28;97560.14;;;9.05;44.26
59154;BME280;44935;48.944;9.418;2024-03-02T01:42:55;97563.05;;;8.86;44.55
59154;BME280;44935;48.944;9.418;2024-03-02T01:45:22;97561.48;;;9.05;43.99
59154;BME280;44935;48.944;9.418;2024-03-02T01:47:50;97559.61;;;8.77;44.49
59154;BME280;44935;48.944;9.418;2024-03-02T01:50:25;97561.23;;;8.18;45.51
59154;BME280;44935;48.944;9.418;2024-03-02T01:52:52;97559.25;;;8.48;45.61
59154;BME280;44935;48.944;9.418;2024-03-02T01:55:20;97555.65;;;8.79;44.48
59154;BME280;44935;48.944;9.418;2024-03-02T01:57:46;97553.63;;;8.86;44.55
59154;BME280;44935;48.944;9.418;2024-03-02T02:00:14;97559.06;;;8.69;44.59
59154;BME280;44935;48.944;9.418;2024-03-02T02:02:41;97557.98;;;8.42;45.59
59154;BME280;44935;48.944;9.418;2024-03-02T02:05:09;97556.65;;;7.93;46.19
59154;BME280;44935;48.944;9.418;2024-03-02T02:07:36;97548.43;;;7.34;46.61
59154;BME280;44935;48.944;9.418;2024-03-02T02:10:05;97547.78;;;8.16;45.73
59154;BME280;44935;48.944;9.418;2024-03-02T02:12:32;97546.36;;;8.17;45.47
59154;BME280;44935;48.944;9.418;2024-03-02T02:15:00;97538.33;;;5.49;49.92
59154;BME280;44935;48.944;9.418;2024-03-02T02:17:27;97535.05;;;6.43;49.20
59154;BME280;44935;48.944;9.418;2024-03-02T02:19:54;97535.75;;;8.01;46.33
59154;BME280;44935;48.944;9.418;2024-03-02T02:22:21;97533.39;;;4.91;52.09
59154;BME280;44935;48.944;9.418;2024-03-02T02:24:48;97529.69;;;7.21;47.82
59154;BME280;44935;48.944;9.418;2024-03-02T02:27:15;97531.83;;;6.71;48.78
59154;BME280;44935;48.944;9.418;2024-03-02T02:29:41;97532.28;;;7.96;46.50
59154;BME280;44935;48.944;9.418;2024-03-02T02:32:08;97531.24;;;5.80;49.46
59154;BME280;44935;48.944;9.418;2024-03-02T02:34:35;97526.74;;;5.89;51.25
59154;BME280;44935;48.944;9.418;2024-03-02T02:37:02;97517.09;;;7.62;47.40
59154;BME280;44935;48.944;9.418;2024-03-02T02:39:29;97517.03;;;7.66;46.54
59154;BME280;44935;48.944;9.418;2024-03-02T02:41:56;97515.13;;;6.40;48.74
59154;BME280;44935;48.944;9.418;2024-03-02T02:44:22;97512.90;;;7.83;46.30
59154;BME280;44935;48.944;9.418;2024-03-02T02:46:49;97513.08;;;8.00;45.77
59154;BME280;44935;48.944;9.418;2024-03-02T02:49:16;97507.97;;;8.65;44.79
59154;BME280;44935;48.944;9.418;2024-03-02T02:51:43;97505.66;;;7.95;45.30
59154;BME280;44935;48.944;9.418;2024-03-02T02:54:10;97501.95;;;8.80;44.16
59154;BME280;44935;48.944;9.418;2024-03-02T02:56:37;97504.15;;;8.12;45.75
59154;BME280;44935;48.944;9.418;2024-03-02T02:59:04;97506.70;;;9.12;43.77
59154;BME280;44935;48.944;9.418;2024-03-02T03:01:30;97504.76;;;7.85;45.73
59154;BME280;44935;48.944;9.418;2024-03-02T03:03:57;97497.95;;;6.81;47.08
59154;BME280;44935;48.944;9.418;2024-03-02T03:06:24;97501.87;;;6.68;48.00
59154;BME280;44935;48.944;9.418;2024-03-02T03:08:51;97508.08;;;8.27;45.31
59154;BME280;44935;48.944;9.418;2024-03-02T03:11:18;97505.72;;;6.83;46.91
59154;BME280;44935;48.944;9.418;2024-03-02T03:13:45;97507.36;;;5.91;49.57
59154;BME280;44935;48.944;9.418;2024-03-02T03:16:11;97503.93;;;7.62;46.42
59154;BME280;44935;48.944;9.418;2024-03-02T03:18:38;97502.17;;;7.67;46.13
59154;BME280;44935;48.944;9.418;2024-03-02T03:21:05;97505.77;;;7.74;45.78
59154;BME280;44935;48.944;9.418;2024-03-02T03:23:32;97512.26;;;8.37;44.85
59154;BME280;44935;48.944;9.418;2024-03-02T03:25:58;97509.74;;;7.42;45.88
59154;BME280;44935;48.944;9.418;2024-03-02T03:28:25;97511.14;;;8.47;44.43
59154;BME280;44935;48.944;9.418;2024-03-02T03:30:52;97515.87;;;7.97;44.91
59154;BME280;44935;48.944;9.418;2024-03-02T03:33:19;97516.70;;;8.39;44.18
59154;BME280;44935;48.944;9.418;2024-03-02T03:35:46;97517.62;;;8.38;43.84
59154;BME280;44935;48.944;9.418;2024-03-02T03:38:13;97521.91;;;8.78;43.65
59154;BME280;44935;48.944;9.418;2024-03-02T03:40:40;97518.76;;;8.48;44.02
59154;BME280;44935;48.944;9.418;2024-03-02T03:43:07;97517.16;;;8.09;44.58
59154;BME280;44935;48.944;9.418;2024-03-02T03:45:34;97515.59;;;8.45;44.06
59154;BME280;44935;48.944;9.418;2024-03-02T03:48:01;97519.69;;;8.48;43.54
59154;BME280;44935;48.944;9.418;2024-03-02T03:50:28;97521.75;;;8.56;42.94
59154;BME280;44935;48.944;9.418;2024-03-02T03:52:55;97520.00;;;8.39;43.82
59154;BME280;44935;48.944;9.418;2024-03-02T03:55:22;97521.14;;;8.14;44.26
59154;BME280;44935;48.944;9.418;2024-03-02T03:57:49;97521.08;;;8.51;43.72
59154;BME280;44935;48.944;9.418;2024-03-02T04:00:16;97518.14;;;7.80;44.54
59154;BME280;44935;48.944;9.418;2024-03-02T04:02:43;97512.99;;;7.42;45.52
59154;BME280;44935;48.944;9.418;2024-03-02T04:05:09;97510.17;;;7.17;46.37
59154;BME280;44935;48.944;9.418;2024-03-02T04:07:36;97510.83;;;7.49;44.98
59154;BME280;44935;48.944;9.418;2024-03-02T04:10:04;97508.58;;;7.46;45.27
59154;BME280;44935;48.944;9.418;2024-03-02T04:12:31;97511.02;;;7.66;44.75
59154;BME280;44935;48.944;9.418;2024-03-02T04:14:58;97515.60;;;7.92;44.11
59154;BME280;44935;48.944;9.418;2024-03-02T04:17:25;97517.58;;;7.98;44.07
59154;BME280;44935;48.944;9.418;2024-03-02T04:19:52;97516.38;;;8.54;43.41
59154;BME280;44935;48.944;9.418;2024-03-02T04:22:20;97517.07;;;7.95;43.95
59154;BME280;44935;48.944;9.418;2024-03-02T04:24:46;97514.86;;;7.80;44.22
59154;BME280;44935;48.944;9.418;2024-03-02T04:27:13;97516.14;;;8.20;43.63
59154;BME280;44935;48.944;9.418;2024-03-02T04:29:40;97515.36;;;8.10;43.80
59154;BME280;44935;48.944;9.418;2024-03-02T04:32:07;97513.07;;;7.56;44.76
59154;BME280;44935;48.944;9.418;2024-03-02T04:34:34;97516.04;;;7.64;44.20
59154;BME280;44935;48.944;9.418;2024-03-02T04:37:01;97515.60;;;7.70;44.87
59154;BME280;44935;48.944;9.418;2024-03-02T04:39:28;97513.77;;;7.14;45.32
59154;BME280;44935;48.944;9.418;2024-03-02T04:41:55;97515.02;;;7.54;44.49
59154;BME280;44935;48.944;9.418;2024-03-02T04:44:22;97513.50;;;7.73;44.94
59154;BME280;44935;48.944;9.418;2024-03-02T04:46:49;97516.45;;;7.68;45.22
59154;BME280;44935;48.944;9.418;2024-03-02T04:49:15;97517.91;;;7.84;43.99
59154;BME280;44935;48.944;9.418;2024-03-02T04:51:42;97520.64;;;7.85;43.66
59154;BME280;44935;48.944;9.418;2024-03-02T04:54:09;97522.00;;;8.49;42.80
59154;BME280;44935;48.944;9.418;2024-03-02T04:56:36;97520.72;;;8.47;42.88
59154;BME280;44935;48.944;9.418;2024-03-02T04:59:02;97519.73;;;7.64;43.93
59154;BME280;44935;48.944;9.418;2024-03-02T05:01:29;97518.66;;;7.69;44.71
59154;BME280;44935;48.944;9.418;2024-03-02T05:03:56;97515.30;;;7.60;44.08
59154;BME280;44935;48.944;9.418;2024-03-02T05:06:23;97514.85;;;7.61;44.67
59154;BME280;44935;48.944;9.418;2024-03-02T05:08:50;97521.70;;;7.21;45.42
59154;BME280;44935;48.944;9.418;2024-03-02T05:11:17;97521.54;;;6.84;45.45
59154;BME280;44935;48.944;9.418;2024-03-02T05:13:44;97515.44;;;7.31;44.79
59154;BME280;44935;48.944;9.418;2024-03-02T05:16:11;97520.22;;;6.94;45.03
59154;BME280;44935;48.944;9.418;2024-03-02T05:18:38;97519.52;;;5.58;47.01
59154;BME280;44935;48.944;9.418;2024-03-02T05:21:05;97521.01;;;6.93;45.93
59154;BME280;44935;48.944;9.418;2024-03-02T05:23:32;97518.68;;;7.46;45.20
59154;BME280;44935;48.944;9.418;2024-03-02T05:25:59;97515.08;;;7.56;44.12
59154;BME280;44935;48.944;9.418;2024-03-02T05:28:26;97515.61;;;7.88;43.87
59154;BME280;44935;48.944;9.418;2024-03-02T05:30:53;97514.23;;;7.55;44.21
59154;BME280;44935;48.944;9.418;2024-03-02T05:33:20;97516.91;;;7.87;43.80
59154;BME280;44935;48.944;9.418;2024-03-02T05:35:47;97513.05;;;7.46;44.06
59154;BME280;44935;48.944;9.418;2024-03-02T05:38:13;97509.64;;;7.51;44.10
59154;BME280;44935;48.944;9.418;2024-03-02T05:40:40;97514.72;;;7.14;44.74
59154;BME280;44935;48.944;9.418;2024-03-02T05:43:07;97515.59;;;7.21;45.20
59154;BME280;44935;48.944;9.418;2024-03-02T05:45:34;97520.13;;;7.05;45.48
59154;BME280;44935;48.944;9.418;2024-03-02T05:48:02;97518.70;;;7.15;45.20
59154;BME280;44935;48.944;9.418;2024-03-02T05:50:28;97515.18;;;6.72;45.62
59154;BME280;44935;48.944;9.418;2024-03-02T05:52:55;97518.15;;;7.73;44.30
59154;BME280;44935;48.944;9.418;2024-03-02T05:55:22;97520.53;;;7.38;44.70
59154;BME280;44935;48.944;9.418;2024-03-02T05:57:48;97522.02;;;6.67;45.39
59154;BME280;44935;48.944;9.418;2024-03-02T06:00:16;97524.43;;;7.37;44.76
59154;BME280;44935;48.944;9.418;2024-03-02T06:02:43;97522.91;;;6.84;45.40
59154;BME280;44935;48.944;9.418;2024-03-02T06:05:10;97525.80;;;7.16;44.83
59154;BME280;44935;48.944;9.418;2024-03-02T06:07:38;97529.35;;;7.28;44.66
59154;BME280;44935;48.944;9.418;2024-03-02T06:10:05;97531.43;;;6.89;45.18
59154;BME280;44935;48.944;9.418;2024-03-02T06:12:32;97535.09;;;6.57;45.63
59154;BME280;44935;48.944;9.418;2024-03-02T06:14:59;97534.18;;;6.55;45.55
59154;BME280;44935;48.944;9.418;2024-03-02T06:17:26;97535.83;;;6.37;45.97
59154;BME280;44935;48.944;9.418;2024-03-02T06:19:53;97537.24;;;5.99;46.73
59154;BME280;44935;48.944;9.418;2024-03-02T06:22:20;97538.35;;;5.61;47.41
59154;BME280;44935;48.944;9.418;2024-03-02T06:24:46;97541.21;;;5.87;47.40
59154;BME280;44935;48.944;9.418;2024-03-02T06:27:13;97537.71;;;6.15;46.85
59154;BME280;44935;48.944;9.418;2024-03-02T06:29:40;97541.14;;;5.98;46.48
59154;BME280;44935;48.944;9.418;2024-03-02T06:32:07;97548.61;;;5.63;47.15
59154;BME280;44935;48.944;9.418;2024-03-02T06:34:34;97553.68;;;5.88;47.18
59154;BME280;44935;48.944;9.418;2024-03-02T06:37:01;97558.56;;;5.68;47.34
59154;BME280;44935;48.944;9.418;2024-03-02T06:39:28;97557.82;;;5.68;47.64
59154;BME280;44935;48.944;9.418;2024-03-02T06:41:54;97557.50;;;5.88;47.49
59154;BME280;44935;48.944;9.418;2024-03-02T06:44:21;97557.72;;;6.48;46.11
59154;BME280;44935;48.944;9.418;2024-03-02T06:46:48;97557.93;;;6.47;46.09
59154;BME280;44935;48.944;9.418;2024-03-02T06:49:15;97559.74;;;6.43;46.56
59154;BME280;44935;48.944;9.418;2024-03-02T06:51:42;97556.40;;;6.40;46.39
59154;BME280;44935;48.944;9.418;2024-03-02T06:54:08;97548.83;;;5.25;48.39
59154;BME280;44935;48.944;9.418;2024-03-02T06:56:35;97551.74;;;6.43;46.04
59154;BME280;44935;48.944;9.418;2024-03-02T06:59:02;97551.56;;;6.45;45.94
59154;BME280;44935;48.944;9.418;2024-03-02T07:01:29;97548.66;;;7.19;45.09
59154;BME280;44935;48.944;9.418;2024-03-02T07:03:56;97546.37;;;7.01;45.19
59154;BME280;44935;48.944;9.418;2024-03-02T07:06:23;97549.79;;;7.01;45.27
59154;BME280;44935;48.944;9.418;2024-03-02T07:08:50;97550.05;;;6.55;46.03
59154;BME280;44935;48.944;9.418;2024-03-02T07:11:16;97550.71;;;6.67;46.37
59154;BME280;44935;48.944;9.418;2024-03-02T07:13:43;97551.91;;;5.60;47.12
59154;BME280;44935;48.944;9.418;2024-03-02T07:16:10;97549.58;;;6.44;47.21
59154;BME280;44935;48.944;9.418;2024-03-02T07:18:37;97553.48;;;6.53;46.97
59154;BME280;44935;48.944;9.418;2024-03-02T07:21:05;97558.28;;;6.13;47.31
59154;BME280;44935;48.944;9.418;2024-03-02T07:23:32;97558.55;;;6.58;47.62
59154;BME280;44935;48.944;9.418;2024-03-02T07:25:58;97559.92;;;6.90;46.75
59154;BME280;44935;48.944;9.418;2024-03-02T07:28:26;97554.61;;;6.82;46.71
59154;BME280;44935;48.944;9.418;2024-03-02T07:30:58;97551.60;;;6.89;47.00
59154;BME280;44935;48.944;9.418;2024-03-02T07:33:24;97551.84;;;6.34;47.44
59154;BME280;44935;48.944;9.418;2024-03-02T07:35:51;97549.47;;;6.13;48.04
59154;BME280;44935;48.944;9.418;2024-03-02T07:38:18;97553.73;;;5.96;48.67
59154;BME280;44935;48.944;9.418;2024-03-02T07:40:46;97557.93;;;5.63;50.15
59154;BME280;44935;48.944;9.418;2024-03-02T07:43:13;97562.83;;;5.12;51.53
59154;BME280;44935;48.944;9.418;2024-03-02T07:45:40;97563.93;;;5.48;51.65
59154;BME280;44935;48.944;9.418;2024-03-02T07:48:07;97565.79;;;5.32;51.38
59154;BME280;44935;48.944;9.418;2024-03-02T07:50:34;97569.29;;;5.67;51.37
59154;BME280;44935;48.944;9.418;2024-03-02T07:53:01;97568.38;;;5.84;51.29
59154;BME280;44935;48.944;9.418;2024-03-02T07:55:28;97574.65;;;6.12;51.36
59154;BME280;44935;48.944;9.418;2024-03-02T07:57:55;97578.62;;;6.45;51.07
59154;BME280;44935;48.944;9.418;2024-03-02T08:00:22;97582.62;;;6.87;49.71
59154;BME280;44935;48.944;9.418;2024-03-02T08:02:50;97578.49;;;7.19;49.68
59154;BME280;44935;48.944;9.418;2024-03-02T08:05:18;97571.11;;;7.89;47.61
59154;BME280;44935;48.944;9.418;2024-03-02T08:07:46;97575.61;;;7.06;49.90
59154;BME280;44935;48.944;9.418;2024-03-02T08:10:14;97574.91;;;6.06;50.96
59154;BME280;44935;48.944;9.418;2024-03-02T08:12:41;97572.96;;;5.30;53.64
59154;BME280;44935;48.944;9.418;2024-03-02T08:15:09;97573.49;;;7.09;49.50
59154;BME280;44935;48.944;9.418;2024-03-02T08:17:36;97573.14;;;6.69;53.24
59154;BME280;44935;48.944;9.418;2024-03-02T08:20:04;97571.27;;;7.89;49.69
59154;BME280;44935;48.944;9.418;2024-03-02T08:22:31;97572.39;;;8.64;48.07
59154;BME280;44935;48.944;9.418;2024-03-02T08:24:58;97564.37;;;7.10;49.74
59154;BME280;44935;48.944;9.418;2024-03-02T08:27:25;97567.73;;;5.88;53.65
59154;BME280;44935;48.944;9.418;2024-03-02T08:29:52;97562.91;;;5.05;56.92
59154;BME280;44935;48.944;9.418;2024-03-02T08:32:19;97560.21;;;5.71;56.61
59154;BME280;44935;48.944;9.418;2024-03-02T08:34:46;97558.19;;;6.54;55.12
59154;BME280;44935;48.944;9.418;2024-03-02T08:37:13;97556.48;;;7.90;50.59
59154;BME280;44935;48.944;9.418;2024-03-02T08:39:40;97558.96;;;9.08;48.23
59154;BME280;44935;48.944;9.418;2024-03-02T08:42:07;97556.54;;;8.78;49.73
59154;BME280;44935;48.944;9.418;2024-03-02T08:44:34;97552.17;;;7.06;52.17
59154;BME280;44935;48.944;9.418;2024-03-02T08:47:01;97555.46;;;5.33;56.33
59154;BME280;44935;48.944;9.418;2024-03-02T08:49:28;97556.01;;;5.73;56.61
59154;BME280;44935;48.944;9.418;2024-03-02T08:51:56;97555.93;;;5.87;56.68
59154;BME280;44935;48.944;9.418;2024-03-02T08:54:23;97553.97;;;7.82;52.98
59154;BME280;44935;48.944;9.418;2024-03-02T08:56:50;97552.59;;;6.71;53.66
59154;BME280;44935;48.944;9.418;2024-03-02T08:59:17;97545.70;;;6.91;54.53
59154;BME280;44935;48.944;9.418;2024-03-02T09:01:44;97542.44;;;7.58;53.38
59154;BME280;44935;48.944;9.418;2024-03-02T09:04:11;97545.32;;;5.76;57.25
59154;BME280;44935;48.944;9.418;2024-03-02T09:06:38;97545.12;;;8.04;53.39
59154;BME280;44935;48.944;9.418;2024-03-02T09:09:05;97540.94;;;9.14;50.68
59154;BME280;44935;48.944;9.418;2024-03-02T09:11:31;97534.67;;;10.16;48.61
59154;BME280;44935;48.944;9.418;2024-03-02T09:13:59;97533.11;;;10.40;47.13
59154;BME280;44935;48.944;9.418;2024-03-02T09:16:26;97537.55;;;10.68;46.16
59154;BME280;44935;48.944;9.418;2024-03-02T09:18:53;97537.07;;;9.76;48.56
59154;BME280;44935;48.944;9.418;2024-03-02T09:21:19;97537.06;;;10.49;46.97
59154;BME280;44935;48.944;9.418;2024-03-02T09:23:47;97538.23;;;8.18;51.01
59154;BME280;44935;48.944;9.418;2024-03-02T09:26:14;97532.11;;;7.14;53.31
59154;BME280;44935;48.944;9.418;2024-03-02T09:28:42;97536.07;;;9.25;51.05
59154;BME280;44935;48.944;9.418;2024-03-02T09:31:10;97535.93;;;7.79;52.47
59154;BME280;44935;48.944;9.418;2024-03-02T09:33:36;97531.76;;;8.73;50.98
59154;BME280;44935;48.944;9.418;2024-03-02T09:36:04;97533.45;;;7.63;51.61
59154;BME280;44935;48.944;9.418;2024-03-02T09:38:32;97529.93;;;8.38;51.01
59154;BME280;44935;48.944;9.418;2024-03-02T09:40:59;97524.38;;;9.73;48.96
59154;BME280;44935;48.944;9.418;2024-03-02T09:43:27;97522.25;;;10.88;46.93
59154;BME280;44935;48.944;9.418;2024-03-02T09:45:55;97525.66;;;9.82;46.81
59154;BME280;44935;48.944;9.418;2024-03-02T09:48:22;97526.80;;;8.60;48.99
59154;BME280;44935;48.944;9.418;2024-03-02T09:50:49;97524.88;;;10.90;45.86
59154;BME280;44935;48.944;9.418;2024-03-02T09:53:16;97518.50;;;11.74;43.30
59154;BME280;44935;48.944;9.418;2024-03-02T09:55:46;97520.06;;;11.77;43.88
59154;BME280;44935;48.944;9.418;2024-03-02T09:58:12;97517.24;;;12.59;42.72
59154;BME280;44935;48.944;9.418;2024-03-02T10:00:40;97520.71;;;12.80;43.28
59154;BME280;44935;48.944;9.418;2024-03-02T10:03:11;97522.79;;;12.67;42.90
59154;BME280;44935;48.944;9.418;2024-03-02T10:05:38;97519.26;;;12.52;41.20
59154;BME280;44935;48.944;9.418;2024-03-02T10:08:06;97514.58;;;11.14;42.73
59154;BME280;44935;48.944;9.418;2024-03-02T10:10:36;97515.70;;;12.43;41.76
59154;BME280;44935;48.944;9.418;2024-03-02T10:13:04;97512.64;;;12.50;41.20
59154;BME280;44935;48.944;9.418;2024-03-02T10:15:31;97513.05;;;13.22;40.80
59154;BME280;44935;48.944;9.418;2024-03-02T10:17:58;97512.78;;;12.65;39.42
59154;BME280;44935;48.944;9.418;2024-03-02T10:20:26;97509.85;;;11.81;40.74
59154;BME280;44935;48.944;9.418;2024-03-02T10:22:54;97507.88;;;11.94;40.32
59154;BME280;44935;48.944;9.418;2024-03-02T10:25:36;97511.47;;;13.14;41.54
59154;BME280;44935;48.944;9.418;2024-03-02T10:28:03;97504.67;;;12.60;39.12
59154;BME280;44935;48.944;9.418;2024-03-02T10:30:31;97502.95;;;12.89;38.52
59154;BME280;44935;48.944;9.418;2024-03-02T10:32:57;97503.64;;;11.09;42.25
59154;BME280;44935;48.944;9.418;2024-03-02T10:35:24;97499.98;;;11.76;41.51
59154;BME280;44935;48.944;9.418;2024-03-02T10:37:53;97503.78;;;13.16;39.65
59154;BME280;44935;48.944;9.418;2024-03-02T10:40:22;97502.16;;;13.60;38.29
59154;BME280;44935;48.944;9.418;2024-03-02T10:42:50;97503.05;;;13.18;38.39
59154;BME280;44935;48.944;9.418;2024-03-02T10:45:19;97497.72;;;12.03;38.76
59154;BME280;44935;48.944;9.418;2024-03-02T10:47:47;97494.01;;;10.67;41.24
59154;BME280;44935;48.944;9.418;2024-03-02T10:50:14;97488.32;;;10.33;42.54
59154;BME280;44935;48.944;9.418;2024-03-02T10:52:41;97482.76;;;11.68;40.28
59154;BME280;44935;48.944;9.418;2024-03-02T10:55:09;97483.54;;;12.34;40.05
59154;BME280;44935;48.944;9.418;2024-03-02T10:57:41;97477.87;;;12.05;38.80
59154;BME280;44935;48.944;9.418;2024-03-02T11:00:12;97471.22;;;10.96;40.52
59154;BME280;44935;48.944;9.418;2024-03-02T11:02:45;97467.31;;;12.95;40.24
59154;BME280;44935;48.944;9.418;2024-03-02T11:05:14;97460.65;;;13.92;38.38
59154;BME280;44935;48.944;9.418;2024-03-02T11:07:46;97457.69;;;14.54;35.76
59154;BME280;44935;48.944;9.418;2024-03-02T11:10:15;97462.78;;;11.89;38.89
59154;BME280;44935;48.944;9.418;2024-03-02T11:12:48;97448.57;;;13.73;36.18
59154;BME280;44935;48.944;9.418;2024-03-02T11:15:20;97447.67;;;13.83;36.80
59154;BME280;44935;48.944;9.418;2024-03-02T11:17:48;97444.81;;;13.57;36.76
59154;BME280;44935;48.944;9.418;2024-03-02T11:20:16;97448.85;;;13.70;35.63
59154;BME280;44935;48.944;9.418;2024-03-02T11:22:43;97451.27;;;12.08;37.44
59154;BME280;44935;48.944;9.418;2024-03-02T11:25:23;97447.62;;;12.64;35.93
59154;BME280;44935;48.944;9.418;2024-03-02T11:28:07;97444.09;;;12.59;36.43
59154;BME280;44935;48.944;9.418;2024-03-02T11:30:50;97441.95;;;12.82;36.02
59154;BME280;44935;48.944;9.418;2024-03-02T11:33:23;97427.63;;;14.48;34.49
59154;BME280;44935;48.944;9.418;2024-03-02T11:35:51;97425.20;;;13.29;35.24
59154;BME280;44935;48.944;9.418;2024-03-02T11:38:18;97423.52;;;12.71;36.85
59154;BME280;44935;48.944;9.418;2024-03-02T11:40:45;97418.78;;;13.60;36.18
59154;BME280;44935;48.944;9.418;2024-03-02T11:43:12;97413.61;;;14.39;35.42
59154;BME280;44935;48.944;9.418;2024-03-02T11:45:43;97407.34;;;14.69;34.75
59154;BME280;44935;48.944;9.418;2024-03-02T11:48:11;97405.75;;;12.47;38.93
59154;BME280;44935;48.944;9.418;2024-03-02T11:50:41;97398.70;;;12.54;38.44
59154;BME280;44935;48.944;9.418;2024-03-02T11:53:09;97388.11;;;13.99;35.88
59154;BME280;44935;48.944;9.418;2024-03-02T11:55:36;97389.91;;;14.42;35.84
59154;BME280;44935;48.944;9.418;2024-03-02T11:58:04;97384.77;;;14.10;34.96
59154;BME280;44935;48.944;9.418;2024-03-02T12:00:32;97383.06;;;12.26;37.52
59154;BME280;44935;48.944;9.418;2024-03-02T12:03:01;97380.36;;;11.86;38.52
59154;BME280;44935;48.944;9.418;2024-03-02T12:05:28;97374.20;;;11.87;37.78
59154;BME280;44935;48.944;9.418;2024-03-02T12:07:57;97364.69;;;11.39;39.49
59154;BME280;44935;48.944;9.418;2024-03-02T12:10:25;97355.48;;;11.56;39.00
59154;BME280;44935;48.944;9.418;2024-03-02T12:12:56;97351.73;;;13.23;37.35
59154;BME280;44935;48.944;9.418;2024-03-02T12:15:25;97348.18;;;13.79;36.13
59154;BME280;44935;48.944;9.418;2024-03-02T12:17:54;97353.44;;;11.95;37.98
59154;BME280;44935;48.944;9.418;2024-03-02T12:20:20;97352.51;;;11.80;39.16
59154;BME280;44935;48.944;9.418;2024-03-02T12:22:47;97348.11;;;12.85;37.01
59154;BME280;44935;48.944;9.418;2024-03-02T12:25:15;97345.19;;;13.68;35.46
59154;BME280;44935;48.944;9.418;2024-03-02T12:27:43;97338.13;;;15.21;33.74
59154;BME280;44935;48.944;9.418;2024-03-02T12:30:11;97335.86;;;14.54;34.27
59154;BME280;44935;48.944;9.418;2024-03-02T12:32:38;97331.80;;;14.87;33.17
59154;BME280;44935;48.944;9.418;2024-03-02T12:35:05;97329.98;;;14.79;33.37
59154;BME280;44935;48.944;9.418;2024-03-02T12:37:32;97332.66;;;15.50;33.09
59154;BME280;44935;48.944;9.418;2024-03-02T12:39:59;97328.86;;;13.72;33.29
59154;BME280;44935;48.944;9.418;2024-03-02T12:42:26;97322.07;;;15.35;33.29
59154;BME280;44935;48.944;9.418;2024-03-02T12:44:53;97319.57;;;14.94;33.22
59154;BME280;44935;48.944;9.418;2024-03-02T12:47:20;97312.79;;;15.90;33.01
59154;BME280;44935;48.944;9.418;2024-03-02T12:49:47;97314.87;;;16.03;31.89
59154;BME280;44935;48.944;9.418;2024-03-02T12:52:14;97312.06;;;16.33;31.89
59154;BME280;44935;48.944;9.418;2024-03-02T12:54:41;97310.14;;;15.40;32.10
59154;BME280;44935;48.944;9.418;2024-03-02T12:57:07;97307.00;;;15.42;32.64
59154;BME280;44935;48.944;9.418;2024-03-02T12:59:34;97302.62;;;15.13;31.70
59154;BME280;44935;48.944;9.418;2024-03-02T13:02:01;97302.80;;;15.63;33.60
59154;BME280;44935;48.944;9.418;2024-03-02T13:04:29;97302.08;;;16.53;31.12
59154;BME280;44935;48.944;9.418;2024-03-02T13:07:01;97304.47;;;15.71;32.33
59154;BME280;44935;48.944;9.418;2024-03-02T13:09:28;97304.73;;;16.15;30.83